sensor_id;sensor_type;location;lat;lon;timestamp;P1;durP1;ratioP1;P2;durP2;ratioP2
66609;SDS011;53468;48.276;14.416;2024-02-14T00:04:33;6.60;;;3.15;;
66609;SDS011;53468;48.276;14.416;2024-02-14T00:09:36;6.43;;;3.58;;
66609;SDS011;53468;48.276;14.416;2024-02-14T00:14:38;5.20;;;3.55;;
66609;SDS011;53468;48.276;14.416;2024-02-14T00:19:41;7.78;;;3.80;;
66609;SDS011;53468;48.276;14.416;2024-02-14T00:24:45;9.82;;;3.50;;
66609;SDS011;53468;48.276;14.416;2024-02-14T00:29:47;6.00;;;3.33;;
66609;SDS011;53468;48.276;14.416;2024-02-14T00:34:49;6.55;;;3.35;;
66609;SDS011;53468;48.276;14.416;2024-02-14T00:39:53;6.57;;;3.45;;
66609;SDS011;53468;48.276;14.416;2024-02-14T00:44:56;5.35;;;3.50;;
66609;SDS011;53468;48.276;14.416;2024-02-14T00:49:58;8.05;;;3.70;;
66609;SDS011;53468;48.276;14.416;2024-02-14T00:55:02;5.90;;;3.63;;
66609;SDS011;53468;48.276;14.416;2024-02-14T01:00:06;11.25;;;3.50;;
66609;SDS011;53468;48.276;14.416;2024-02-14T01:05:09;7.40;;;3.80;;
66609;SDS011;53468;48.276;14.416;2024-02-14T01:10:12;5.68;;;3.08;;
66609;SDS011;53468;48.276;14.416;2024-02-14T01:15:15;6.60;;;3.95;;
66609;SDS011;53468;48.276;14.416;2024-02-14T01:20:17;7.57;;;4.30;;
66609;SDS011;53468;48.276;14.416;2024-02-14T01:25:21;8.20;;;3.28;;
66609;SDS011;53468;48.276;14.416;2024-02-14T01:30:23;7.57;;;4.05;;
66609;SDS011;53468;48.276;14.416;2024-02-14T01:35:25;8.80;;;3.50;;
66609;SDS011;53468;48.276;14.416;2024-02-14T01:40:29;6.35;;;4.38;;
66609;SDS011;53468;48.276;14.416;2024-02-14T01:45:31;6.82;;;3.55;;
66609;SDS011;53468;48.276;14.416;2024-02-14T01:50:33;4.90;;;3.13;;
66609;SDS011;53468;48.276;14.416;2024-02-14T01:55:38;7.70;;;3.33;;
66609;SDS011;53468;48.276;14.416;2024-02-14T02:00:40;4.90;;;3.45;;
66609;SDS011;53468;48.276;14.416;2024-02-14T02:05:42;7.13;;;3.25;;
66609;SDS011;53468;48.276;14.416;2024-02-14T02:10:46;7.30;;;3.78;;
66609;SDS011;53468;48.276;14.416;2024-02-14T02:15:48;6.82;;;3.33;;
66609;SDS011;53468;48.276;14.416;2024-02-14T02:20:51;7.28;;;3.60;;
66609;SDS011;53468;48.276;14.416;2024-02-14T02:25:54;5.97;;;3.53;;
66609;SDS011;53468;48.276;14.416;2024-02-14T02:30:56;5.65;;;3.90;;
66609;SDS011;53468;48.276;14.416;2024-02-14T02:35:58;6.15;;;2.90;;
66609;SDS011;53468;48.276;14.416;2024-02-14T02:41:02;7.53;;;3.65;;
66609;SDS011;53468;48.276;14.416;2024-02-14T02:46:08;6.20;;;3.65;;
66609;SDS011;53468;48.276;14.416;2024-02-14T02:51:10;6.53;;;3.50;;
66609;SDS011;53468;48.276;14.416;2024-02-14T02:56:14;10.38;;;4.50;;
66609;SDS011;53468;48.276;14.416;2024-02-14T03:01:16;6.95;;;4.15;;
66609;SDS011;53468;48.276;14.416;2024-02-14T03:06:18;6.82;;;3.20;;
66609;SDS011;53468;48.276;14.416;2024-02-14T03:11:22;4.95;;;3.40;;
66609;SDS011;53468;48.276;14.416;2024-02-14T03:16:25;7.00;;;3.13;;
66609;SDS011;53468;48.276;14.416;2024-02-14T03:21:27;11.05;;;3.97;;
66609;SDS011;53468;48.276;14.416;2024-02-14T03:26:31;8.02;;;3.40;;
66609;SDS011;53468;48.276;14.416;2024-02-14T03:31:34;5.43;;;3.50;;
66609;SDS011;53468;48.276;14.416;2024-02-14T03:36:36;6.50;;;3.90;;
66609;SDS011;53468;48.276;14.416;2024-02-14T03:41:40;8.02;;;4.10;;
66609;SDS011;53468;48.276;14.416;2024-02-14T03:46:42;7.68;;;3.35;;
66609;SDS011;53468;48.276;14.416;2024-02-14T03:51:44;6.93;;;4.32;;
66609;SDS011;53468;48.276;14.416;2024-02-14T03:56:48;10.15;;;5.72;;
66609;SDS011;53468;48.276;14.416;2024-02-14T04:01:51;9.57;;;3.50;;
66609;SDS011;53468;48.276;14.416;2024-02-14T04:06:53;5.50;;;3.60;;
66609;SDS011;53468;48.276;14.416;2024-02-14T04:11:57;6.35;;;3.63;;
66609;SDS011;53468;48.276;14.416;2024-02-14T04:16:59;6.53;;;4.28;;
66609;SDS011;53468;48.276;14.416;2024-02-14T04:22:02;5.78;;;3.53;;
66609;SDS011;53468;48.276;14.416;2024-02-14T04:27:07;6.10;;;3.47;;
66609;SDS011;53468;48.276;14.416;2024-02-14T04:32:09;7.30;;;3.78;;
66609;SDS011;53468;48.276;14.416;2024-02-14T04:37:11;9.52;;;3.45;;
66609;SDS011;53468;48.276;14.416;2024-02-14T04:42:15;8.90;;;4.95;;
66609;SDS011;53468;48.276;14.416;2024-02-14T04:47:17;7.13;;;4.13;;
66609;SDS011;53468;48.276;14.416;2024-02-14T04:52:20;10.18;;;4.25;;
66609;SDS011;53468;48.276;14.416;2024-02-14T04:57:24;9.70;;;4.15;;
66609;SDS011;53468;48.276;14.416;2024-02-14T05:02:26;10.43;;;4.13;;
66609;SDS011;53468;48.276;14.416;2024-02-14T05:07:28;10.38;;;4.53;;
66609;SDS011;53468;48.276;14.416;2024-02-14T05:12:32;7.32;;;4.20;;
66609;SDS011;53468;48.276;14.416;2024-02-14T05:17:34;6.40;;;3.78;;
66609;SDS011;53468;48.276;14.416;2024-02-14T05:22:37;7.93;;;4.95;;
66609;SDS011;53468;48.276;14.416;2024-02-14T05:27:41;6.22;;;3.92;;
66609;SDS011;53468;48.276;14.416;2024-02-14T05:32:44;9.23;;;4.82;;
66609;SDS011;53468;48.276;14.416;2024-02-14T05:37:46;8.05;;;4.25;;
66609;SDS011;53468;48.276;14.416;2024-02-14T05:42:51;9.65;;;4.65;;
66609;SDS011;53468;48.276;14.416;2024-02-14T05:47:53;10.23;;;4.30;;
66609;SDS011;53468;48.276;14.416;2024-02-14T05:52:55;5.97;;;4.25;;
66609;SDS011;53468;48.276;14.416;2024-02-14T05:57:59;7.72;;;4.05;;
66609;SDS011;53468;48.276;14.416;2024-02-14T06:03:01;11.93;;;5.32;;
66609;SDS011;53468;48.276;14.416;2024-02-14T06:08:05;9.38;;;4.95;;
66609;SDS011;53468;48.276;14.416;2024-02-14T06:13:09;10.50;;;5.20;;
66609;SDS011;53468;48.276;14.416;2024-02-14T06:18:11;6.05;;;4.28;;
66609;SDS011;53468;48.276;14.416;2024-02-14T06:23:13;9.45;;;5.10;;
66609;SDS011;53468;48.276;14.416;2024-02-14T06:28:17;7.65;;;4.70;;
66609;SDS011;53468;48.276;14.416;2024-02-14T06:33:19;7.80;;;4.70;;
66609;SDS011;53468;48.276;14.416;2024-02-14T06:38:22;13.73;;;4.95;;
66609;SDS011;53468;48.276;14.416;2024-02-14T06:43:25;9.15;;;4.45;;
66609;SDS011;53468;48.276;14.416;2024-02-14T06:48:29;9.98;;;4.47;;
66609;SDS011;53468;48.276;14.416;2024-02-14T06:53:31;6.90;;;4.57;;
66609;SDS011;53468;48.276;14.416;2024-02-14T06:58:35;9.63;;;4.43;;
66609;SDS011;53468;48.276;14.416;2024-02-14T07:03:37;9.40;;;5.25;;
66609;SDS011;53468;48.276;14.416;2024-02-14T07:08:40;12.52;;;4.30;;
66609;SDS011;53468;48.276;14.416;2024-02-14T07:13:44;8.95;;;5.53;;
66609;SDS011;53468;48.276;14.416;2024-02-14T07:18:46;8.15;;;4.90;;
66609;SDS011;53468;48.276;14.416;2024-02-14T07:23:49;12.52;;;4.18;;
66609;SDS011;53468;48.276;14.416;2024-02-14T07:28:55;7.55;;;4.65;;
66609;SDS011;53468;48.276;14.416;2024-02-14T07:33:57;8.93;;;4.75;;
66609;SDS011;53468;48.276;14.416;2024-02-14T07:38:59;11.85;;;5.57;;
66609;SDS011;53468;48.276;14.416;2024-02-14T07:49:30;9.27;;;4.57;;
66609;SDS011;53468;48.276;14.416;2024-02-14T07:54:32;7.85;;;4.13;;
66609;SDS011;53468;48.276;14.416;2024-02-14T07:59:36;12.65;;;4.25;;
66609;SDS011;53468;48.276;14.416;2024-02-14T08:04:38;7.82;;;5.05;;
66609;SDS011;53468;48.276;14.416;2024-02-14T08:09:40;9.13;;;4.70;;
66609;SDS011;53468;48.276;14.416;2024-02-14T08:14:44;8.02;;;4.50;;
66609;SDS011;53468;48.276;14.416;2024-02-14T08:19:47;8.82;;;4.13;;
66609;SDS011;53468;48.276;14.416;2024-02-14T08:24:49;8.57;;;4.90;;
66609;SDS011;53468;48.276;14.416;2024-02-14T08:29:53;13.02;;;7.40;;
66609;SDS011;53468;48.276;14.416;2024-02-14T08:34:55;8.25;;;4.18;;
66609;SDS011;53468;48.276;14.416;2024-02-14T08:39:57;7.63;;;4.63;;
66609;SDS011;53468;48.276;14.416;2024-02-14T08:45:01;7.50;;;4.35;;
66609;SDS011;53468;48.276;14.416;2024-02-14T08:55:13;6.93;;;3.95;;
66609;SDS011;53468;48.276;14.416;2024-02-14T09:00:20;7.72;;;4.00;;
66609;SDS011;53468;48.276;14.416;2024-02-14T09:05:22;9.70;;;4.50;;
66609;SDS011;53468;48.276;14.416;2024-02-14T09:10:24;9.20;;;5.03;;
66609;SDS011;53468;48.276;14.416;2024-02-14T09:15:28;14.38;;;6.05;;
66609;SDS011;53468;48.276;14.416;2024-02-14T09:20:31;7.85;;;4.53;;
66609;SDS011;53468;48.276;14.416;2024-02-14T09:25:33;9.32;;;4.90;;
66609;SDS011;53468;48.276;14.416;2024-02-14T09:30:36;7.20;;;4.72;;
66609;SDS011;53468;48.276;14.416;2024-02-14T09:35:38;11.80;;;5.25;;
66609;SDS011;53468;48.276;14.416;2024-02-14T09:40:44;8.35;;;4.30;;
66609;SDS011;53468;48.276;14.416;2024-02-14T09:45:47;6.72;;;4.57;;
66609;SDS011;53468;48.276;14.416;2024-02-14T09:50:52;12.30;;;5.32;;
66609;SDS011;53468;48.276;14.416;2024-02-14T09:55:55;10.30;;;6.00;;
66609;SDS011;53468;48.276;14.416;2024-02-14T10:00:59;11.23;;;5.75;;
66609;SDS011;53468;48.276;14.416;2024-02-14T10:06:01;9.98;;;5.00;;
66609;SDS011;53468;48.276;14.416;2024-02-14T10:11:04;9.90;;;5.72;;
66609;SDS011;53468;48.276;14.416;2024-02-14T10:16:08;12.57;;;6.45;;
66609;SDS011;53468;48.276;14.416;2024-02-14T10:21:14;11.05;;;6.40;;
66609;SDS011;53468;48.276;14.416;2024-02-14T10:26:19;11.05;;;6.68;;
66609;SDS011;53468;48.276;14.416;2024-02-14T10:31:23;9.85;;;5.68;;
66609;SDS011;53468;48.276;14.416;2024-02-14T10:36:26;14.73;;;7.25;;
66609;SDS011;53468;48.276;14.416;2024-02-14T10:41:30;12.68;;;7.93;;
66609;SDS011;53468;48.276;14.416;2024-02-14T10:46:37;16.33;;;9.15;;
66609;SDS011;53468;48.276;14.416;2024-02-14T10:51:41;29.23;;;13.27;;
66609;SDS011;53468;48.276;14.416;2024-02-14T10:56:48;21.42;;;12.77;;
66609;SDS011;53468;48.276;14.416;2024-02-14T11:01:53;19.92;;;12.68;;
66609;SDS011;53468;48.276;14.416;2024-02-14T11:06:58;22.15;;;13.38;;
66609;SDS011;53468;48.276;14.416;2024-02-14T11:17:10;46.50;;;23.27;;
66609;SDS011;53468;48.276;14.416;2024-02-14T11:22:17;50.35;;;26.52;;
66609;SDS011;53468;48.276;14.416;2024-02-14T11:42:52;19.83;;;10.90;;
66609;SDS011;53468;48.276;14.416;2024-02-14T11:47:55;19.92;;;11.10;;
66609;SDS011;53468;48.276;14.416;2024-02-14T11:52:58;17.55;;;9.90;;
66609;SDS011;53468;48.276;14.416;2024-02-14T11:58:02;20.35;;;8.95;;
66609;SDS011;53468;48.276;14.416;2024-02-14T12:03:10;16.17;;;9.07;;
66609;SDS011;53468;48.276;14.416;2024-02-14T12:08:13;18.35;;;8.60;;
66609;SDS011;53468;48.276;14.416;2024-02-14T12:13:20;17.13;;;9.05;;
66609;SDS011;53468;48.276;14.416;2024-02-14T12:18:22;16.00;;;8.15;;
66609;SDS011;53468;48.276;14.416;2024-02-14T12:23:25;9.80;;;6.72;;
66609;SDS011;53468;48.276;14.416;2024-02-14T12:28:28;11.32;;;6.50;;
66609;SDS011;53468;48.276;14.416;2024-02-14T12:33:32;15.65;;;6.05;;
66609;SDS011;53468;48.276;14.416;2024-02-14T12:38:35;16.70;;;6.43;;
66609;SDS011;53468;48.276;14.416;2024-02-14T12:43:39;15.00;;;8.73;;
66609;SDS011;53468;48.276;14.416;2024-02-14T12:48:42;18.45;;;8.27;;
66609;SDS011;53468;48.276;14.416;2024-02-14T12:53:44;16.60;;;10.27;;
66609;SDS011;53468;48.276;14.416;2024-02-14T12:58:48;14.65;;;7.57;;
66609;SDS011;53468;48.276;14.416;2024-02-14T13:03:50;15.13;;;7.95;;
66609;SDS011;53468;48.276;14.416;2024-02-14T13:08:53;15.13;;;7.88;;
66609;SDS011;53468;48.276;14.416;2024-02-14T13:13:57;15.30;;;8.93;;
66609;SDS011;53468;48.276;14.416;2024-02-14T13:18:59;20.65;;;9.02;;
66609;SDS011;53468;48.276;14.416;2024-02-14T13:24:02;26.13;;;11.00;;
66609;SDS011;53468;48.276;14.416;2024-02-14T13:29:06;19.17;;;10.43;;
66609;SDS011;53468;48.276;14.416;2024-02-14T13:34:08;19.35;;;10.80;;
66609;SDS011;53468;48.276;14.416;2024-02-14T13:39:12;18.40;;;11.55;;
66609;SDS011;53468;48.276;14.416;2024-02-14T13:44:15;30.23;;;12.68;;
66609;SDS011;53468;48.276;14.416;2024-02-14T13:49:18;24.80;;;11.50;;
66609;SDS011;53468;48.276;14.416;2024-02-14T13:54:22;24.02;;;11.98;;
66609;SDS011;53468;48.276;14.416;2024-02-14T13:59:26;17.80;;;10.05;;
66609;SDS011;53468;48.276;14.416;2024-02-14T14:04:29;17.65;;;10.40;;
66609;SDS011;53468;48.276;14.416;2024-02-14T14:09:31;23.60;;;10.90;;
66609;SDS011;53468;48.276;14.416;2024-02-14T14:14:35;17.02;;;8.63;;
66609;SDS011;53468;48.276;14.416;2024-02-14T14:19:37;20.60;;;7.78;;
66609;SDS011;53468;48.276;14.416;2024-02-14T14:24:41;12.68;;;6.95;;
66609;SDS011;53468;48.276;14.416;2024-02-14T14:29:45;11.23;;;6.05;;
66609;SDS011;53468;48.276;14.416;2024-02-14T14:34:47;15.23;;;6.47;;
66609;SDS011;53468;48.276;14.416;2024-02-14T14:39:49;32.88;;;10.30;;
66609;SDS011;53468;48.276;14.416;2024-02-14T14:44:53;15.73;;;6.10;;
66609;SDS011;53468;48.276;14.416;2024-02-14T14:49:55;14.13;;;6.15;;
66609;SDS011;53468;48.276;14.416;2024-02-14T14:54:57;8.48;;;5.07;;
66609;SDS011;53468;48.276;14.416;2024-02-14T15:00:01;9.55;;;5.10;;
66609;SDS011;53468;48.276;14.416;2024-02-14T15:05:04;11.52;;;5.13;;
66609;SDS011;53468;48.276;14.416;2024-02-14T15:10:07;9.70;;;5.35;;
66609;SDS011;53468;48.276;14.416;2024-02-14T15:15:11;14.02;;;5.45;;
66609;SDS011;53468;48.276;14.416;2024-02-14T15:20:13;8.02;;;4.22;;
66609;SDS011;53468;48.276;14.416;2024-02-14T15:25:16;8.40;;;4.60;;
66609;SDS011;53468;48.276;14.416;2024-02-14T15:30:20;9.77;;;4.85;;
66609;SDS011;53468;48.276;14.416;2024-02-14T15:35:45;8.77;;;4.03;;
66609;SDS011;53468;48.276;14.416;2024-02-14T15:40:48;11.52;;;4.75;;
66609;SDS011;53468;48.276;14.416;2024-02-14T15:45:55;8.73;;;4.38;;
66609;SDS011;53468;48.276;14.416;2024-02-14T15:50:57;7.05;;;4.43;;
66609;SDS011;53468;48.276;14.416;2024-02-14T15:55:59;8.40;;;4.40;;
66609;SDS011;53468;48.276;14.416;2024-02-14T16:01:03;7.88;;;4.50;;
66609;SDS011;53468;48.276;14.416;2024-02-14T16:06:06;12.82;;;5.38;;
66609;SDS011;53468;48.276;14.416;2024-02-14T16:11:09;9.77;;;5.35;;
66609;SDS011;53468;48.276;14.416;2024-02-14T16:16:12;10.23;;;5.72;;
66609;SDS011;53468;48.276;14.416;2024-02-14T16:21:14;10.40;;;5.03;;
66609;SDS011;53468;48.276;14.416;2024-02-14T16:26:17;11.00;;;4.47;;
66609;SDS011;53468;48.276;14.416;2024-02-14T16:31:21;10.73;;;4.82;;
66609;SDS011;53468;48.276;14.416;2024-02-14T16:36:23;8.77;;;5.90;;
66609;SDS011;53468;48.276;14.416;2024-02-14T16:41:25;11.95;;;4.28;;
66609;SDS011;53468;48.276;14.416;2024-02-14T16:46:29;8.20;;;4.22;;
66609;SDS011;53468;48.276;14.416;2024-02-14T16:51:31;10.05;;;4.25;;
66609;SDS011;53468;48.276;14.416;2024-02-14T16:56:33;5.97;;;3.58;;
66609;SDS011;53468;48.276;14.416;2024-02-14T17:01:37;12.32;;;4.80;;
66609;SDS011;53468;48.276;14.416;2024-02-14T17:06:39;10.57;;;4.30;;
66609;SDS011;53468;48.276;14.416;2024-02-14T17:11:41;6.88;;;4.18;;
66609;SDS011;53468;48.276;14.416;2024-02-14T17:16:45;14.13;;;5.10;;
66609;SDS011;53468;48.276;14.416;2024-02-14T17:21:48;9.25;;;5.53;;
66609;SDS011;53468;48.276;14.416;2024-02-14T17:26:50;8.90;;;5.22;;
66609;SDS011;53468;48.276;14.416;2024-02-14T17:31:54;15.70;;;6.07;;
66609;SDS011;53468;48.276;14.416;2024-02-14T17:36:57;11.98;;;5.47;;
66609;SDS011;53468;48.276;14.416;2024-02-14T17:41:59;11.25;;;6.03;;
66609;SDS011;53468;48.276;14.416;2024-02-14T17:47:03;12.73;;;5.40;;
66609;SDS011;53468;48.276;14.416;2024-02-14T17:52:06;11.52;;;6.00;;
66609;SDS011;53468;48.276;14.416;2024-02-14T17:57:09;10.20;;;5.80;;
66609;SDS011;53468;48.276;14.416;2024-02-14T18:02:13;11.30;;;5.60;;
66609;SDS011;53468;48.276;14.416;2024-02-14T18:07:17;10.07;;;5.93;;
66609;SDS011;53468;48.276;14.416;2024-02-14T18:12:19;13.32;;;6.28;;
66609;SDS011;53468;48.276;14.416;2024-02-14T18:17:27;10.65;;;5.10;;
66609;SDS011;53468;48.276;14.416;2024-02-14T18:22:29;10.35;;;6.00;;
66609;SDS011;53468;48.276;14.416;2024-02-14T18:27:31;10.60;;;5.60;;
66609;SDS011;53468;48.276;14.416;2024-02-14T18:32:35;11.57;;;6.05;;
66609;SDS011;53468;48.276;14.416;2024-02-14T18:37:38;10.63;;;6.10;;
66609;SDS011;53468;48.276;14.416;2024-02-14T18:42:40;8.15;;;5.15;;
66609;SDS011;53468;48.276;14.416;2024-02-14T18:47:44;10.10;;;6.30;;
66609;SDS011;53468;48.276;14.416;2024-02-14T18:52:48;12.20;;;6.03;;
66609;SDS011;53468;48.276;14.416;2024-02-14T18:57:50;11.18;;;6.18;;
66609;SDS011;53468;48.276;14.416;2024-02-14T19:02:54;13.95;;;7.57;;
66609;SDS011;53468;48.276;14.416;2024-02-14T19:07:56;12.75;;;6.88;;
66609;SDS011;53468;48.276;14.416;2024-02-14T19:12:58;10.07;;;6.55;;
66609;SDS011;53468;48.276;14.416;2024-02-14T19:18:02;11.18;;;6.68;;
66609;SDS011;53468;48.276;14.416;2024-02-14T19:23:05;9.85;;;6.10;;
66609;SDS011;53468;48.276;14.416;2024-02-14T19:28:07;10.13;;;6.13;;
66609;SDS011;53468;48.276;14.416;2024-02-14T19:33:13;10.35;;;6.30;;
66609;SDS011;53468;48.276;14.416;2024-02-14T19:38:15;12.40;;;5.95;;
66609;SDS011;53468;48.276;14.416;2024-02-14T19:43:18;10.05;;;6.75;;
66609;SDS011;53468;48.276;14.416;2024-02-14T19:48:25;11.57;;;5.95;;
66609;SDS011;53468;48.276;14.416;2024-02-14T19:53:30;11.35;;;7.07;;
66609;SDS011;53468;48.276;14.416;2024-02-14T19:58:32;10.55;;;6.07;;
66609;SDS011;53468;48.276;14.416;2024-02-14T20:03:36;9.30;;;5.95;;
66609;SDS011;53468;48.276;14.416;2024-02-14T20:08:38;12.95;;;6.38;;
66609;SDS011;53468;48.276;14.416;2024-02-14T20:13:41;11.05;;;6.45;;
66609;SDS011;53468;48.276;14.416;2024-02-14T20:18:45;9.20;;;6.85;;
66609;SDS011;53468;48.276;14.416;2024-02-14T20:23:48;10.63;;;6.40;;
66609;SDS011;53468;48.276;14.416;2024-02-14T20:28:50;8.07;;;5.93;;
66609;SDS011;53468;48.276;14.416;2024-02-14T20:33:54;10.55;;;6.30;;
66609;SDS011;53468;48.276;14.416;2024-02-14T20:39:02;10.82;;;6.72;;
66609;SDS011;53468;48.276;14.416;2024-02-14T20:44:04;11.90;;;6.65;;
66609;SDS011;53468;48.276;14.416;2024-02-14T20:49:08;11.40;;;7.20;;
66609;SDS011;53468;48.276;14.416;2024-02-14T20:54:10;10.85;;;7.07;;
66609;SDS011;53468;48.276;14.416;2024-02-14T20:59:12;11.20;;;6.45;;
66609;SDS011;53468;48.276;14.416;2024-02-14T21:04:17;11.85;;;7.55;;
66609;SDS011;53468;48.276;14.416;2024-02-14T21:09:19;14.55;;;6.82;;
66609;SDS011;53468;48.276;14.416;2024-02-14T21:14:21;13.20;;;8.00;;
66609;SDS011;53468;48.276;14.416;2024-02-14T21:19:24;11.98;;;7.70;;
66609;SDS011;53468;48.276;14.416;2024-02-14T21:24:27;17.75;;;7.82;;
66609;SDS011;53468;48.276;14.416;2024-02-14T21:29:30;16.35;;;8.43;;
66609;SDS011;53468;48.276;14.416;2024-02-14T21:34:34;16.00;;;8.32;;
66609;SDS011;53468;48.276;14.416;2024-02-14T21:39:36;15.50;;;7.30;;
66609;SDS011;53468;48.276;14.416;2024-02-14T21:44:39;13.40;;;8.23;;
66609;SDS011;53468;48.276;14.416;2024-02-14T21:49:44;14.57;;;7.53;;
66609;SDS011;53468;48.276;14.416;2024-02-14T21:54:46;15.45;;;8.57;;
66609;SDS011;53468;48.276;14.416;2024-02-14T21:59:48;13.25;;;8.43;;
66609;SDS011;53468;48.276;14.416;2024-02-14T22:04:53;15.90;;;8.18;;
66609;SDS011;53468;48.276;14.416;2024-02-14T22:09:55;15.98;;;9.00;;
66609;SDS011;53468;48.276;14.416;2024-02-14T22:14:58;14.75;;;7.90;;
66609;SDS011;53468;48.276;14.416;2024-02-14T22:20:01;15.82;;;7.75;;
66609;SDS011;53468;48.276;14.416;2024-02-14T22:25:06;13.45;;;7.18;;
66609;SDS011;53468;48.276;14.416;2024-02-14T22:30:09;15.63;;;8.80;;
66609;SDS011;53468;48.276;14.416;2024-02-14T22:35:16;11.60;;;7.57;;
66609;SDS011;53468;48.276;14.416;2024-02-14T22:40:18;10.70;;;7.18;;
66609;SDS011;53468;48.276;14.416;2024-02-14T22:45:21;14.95;;;7.88;;
66609;SDS011;53468;48.276;14.416;2024-02-14T22:50:25;14.65;;;7.55;;
66609;SDS011;53468;48.276;14.416;2024-02-14T22:55:27;16.45;;;9.00;;
66609;SDS011;53468;48.276;14.416;2024-02-14T23:00:30;12.65;;;7.60;;
66609;SDS011;53468;48.276;14.416;2024-02-14T23:05:35;12.82;;;7.35;;
66609;SDS011;53468;48.276;14.416;2024-02-14T23:10:37;12.93;;;8.13;;
66609;SDS011;53468;48.276;14.416;2024-02-14T23:15:39;13.40;;;7.63;;
66609;SDS011;53468;48.276;14.416;2024-02-14T23:20:44;16.27;;;8.52;;
66609;SDS011;53468;48.276;14.416;2024-02-14T23:25:47;14.38;;;7.90;;
66609;SDS011;53468;48.276;14.416;2024-02-14T23:30:50;13.63;;;7.65;;
66609;SDS011;53468;48.276;14.416;2024-02-14T23:35:55;13.52;;;8.27;;
66609;SDS011;53468;48.276;14.416;2024-02-14T23:40:57;13.80;;;8.63;;
66609;SDS011;53468;48.276;14.416;2024-02-14T23:45:59;12.02;;;7.90;;
66609;SDS011;53468;48.276;14.416;2024-02-14T23:51:06;10.35;;;7.05;;
66609;SDS011;53468;48.276;14.416;2024-02-14T23:56:08;15.45;;;8.38;;
